Tiempo atmosférico en la estación meteorológica de Polinyà de Xúquer, València/Valencia (12 m.)



Fecha
DESCASC
Temp. máxima en grados centígrados (hora)
DESCASC
Temp. mínima en grados centígrados (hora)
DESCASC
Temp. media en grados centígrados
DESCASC
Racha de viento máxima en m/sg (hora)
DESCASC
Velocidad máxima media en intervalos de 10 minutos(hora)
DESCASC
Precipitaciones diarias en mm
DESCASC
Precipitaciones de 00:00 a 06:00 en mm
DESCASC
Precipitaciones de 06:00 a 12:00 en mm
DESCASC
Precipitaciones de 12:00 a 18:00 en mm
DESCASC
Precipitaciones de 18:00 a 24:00 en mm
DESCASC
22-11-2020 16.7 (14:30) 6.7 (06:20) 11.7 8.06 (09:40) 4.17 (09:50) -- -- -- -- --
21-11-2020 16.5 (14:20) 7.5 (01:50) 12 5 (15:20) 2.78 (15:20) -- -- -- -- --
20-11-2020 17.3 (15:20) 8.4 (22:20) 12.8 5.83 (15:30) 2.78 (15:30) -- -- -- -- --
19-11-2020 20.5 (16:30) 11.8 (00:00) 16.2 5 (23:50) 2.78 (23:30) -- -- -- -- --
18-11-2020 19.3 (15:10) 12.7 (00:00) 16 5 (10:30) 2.5 (15:40) -- -- -- -- --
17-11-2020 20 (13:30) 13 (00:00) 16.5 6.94 (15:30) 3.61 (15:10) -- -- -- -- --
16-11-2020 22.7 (12:50) 14.2 (00:00) 18.5 7.78 (15:20) 3.89 (07:10) -- -- -- -- --
15-11-2020 22.8 (16:30) 14.7 (00:00) 18.7 8.89 (12:00) 3.89 (10:40) -- -- -- -- --
14-11-2020 17.7 (14:20) 13.4 (00:00) 15.6 3.89 (10:30) 2.22 (23:00) -- -- -- -- --
13-11-2020 18.9 (14:00) 13.5 (00:00) 16.2 3.61 (08:30) 1.94 (08:30) -- -- -- -- --
12-11-2020 18.8 (13:40) 11.1 (00:00) 14.9 5.56 (15:40) 2.78 (15:50) -- -- -- -- --
11-11-2020 19 (13:50) 11.7 (00:00) 15.3 6.67 (16:40) 3.61 (16:40) -- -- -- -- --
10-11-2020 19.4 (13:10) 11.8 (00:00) 15.6 6.11 (09:20) 2.78 (16:40) -- -- -- -- --
09-11-2020 20.3 (13:10) 11 (00:00) 15.6 5 (11:10) 2.78 (11:00) -- -- -- -- --
08-11-2020 20.7 (14:10) 11 (00:00) 15.9 6.94 (08:00) 3.89 (08:10) -- -- -- -- --
07-11-2020 18.9 (13:10) 12.7 (00:00) 15.8 14.72 (06:30) 3.06 (01:30) -- -- -- -- --
06-11-2020 -- (--) -- (--) -- -- (--) -- (--) -- -- -- -- --
05-11-2020 -- (--) -- (--) -- -- (--) -- (--) -- -- -- -- --
04-11-2020 17.3 (00:00) 12.7 (00:00) 15 12.22 (23:59) 5 (23:40) -- -- -- -- --
03-11-2020 19.6 (15:00) 14.1 (00:00) 16.9 6.11 (22:10) 3.61 (21:50) -- -- -- -- --
02-11-2020 22.1 (13:50) 8.7 (00:00) 15.4 6.67 (14:30) 3.61 (14:30) -- -- -- -- --
01-11-2020 23.4 (13:20) 10.1 (00:00) 16.8 7.5 (15:30) 3.89 (15:10) 0 0 0 0 0
31-10-2020 21.7 (13:20) 13.1 (00:00) 17.4 6.67 (13:50) 3.89 (14:30) 0 0 0 0 0
30-10-2020 22.2 (12:50) 11 (00:00) 16.6 8.61 (15:10) 4.44 (15:10) 0 0 0 0 0
29-10-2020 -- (--) -- (--) -- 7.5 (16:10) 3.89 (17:00) 0 0 0 0 0
28-10-2020 23.2 (15:00) 13.4 (00:00) 18.3 7.78 (16:40) 3.89 (16:40) 0 0 0 0 0
27-10-2020 21.2 (16:20) 10.8 (00:00) 16 9.17 (09:20) 4.17 (08:30) 0 0 0 0 0

Gráficas

Temp. máximas Temp. mínimas Temp. medias Precipitaciones Rachas de viento máximas Velocidades máximas media en intervalos de 10 minutos

Datos horarios

Fecha y hora oficial Temperatura (ºC) Velocidad del viento (km/h) Dirección del viento Racha (km/h) Dirección de racha Precipitación (mm) Presión (hPa) Tendencia (hPa) Humedad (%)
2020-11-25 23:00:00 10.5 5 Sudoeste 9 Sudoeste -- -- -- 97
2020-11-25 22:00:00 11.3 4 Sudoeste 9 Sudoeste -- -- -- 97
2020-11-25 21:00:00 11.2 4 Sudoeste 11 Sudoeste -- -- -- 97
2020-11-25 20:00:00 10.4 0 Calma 4 Sudoeste -- -- -- 95
2020-11-25 19:00:00 11.4 0 Calma -- -- -- -- -- 91
2020-11-25 18:00:00 12.7 2 Este 12 Este -- -- -- 86
2020-11-25 17:00:00 14.7 8 Este 17 Sudeste -- -- -- 76
2020-11-25 16:00:00 15.5 9 Este 18 Este -- -- -- 67
2020-11-25 15:00:00 16.2 8 Este 15 Este -- -- -- 63
2020-11-25 14:00:00 15.8 4 Nordeste 14 Nordeste -- -- -- 63
2020-11-25 13:00:00 15.4 0 Calma -- -- -- -- -- 63
2020-11-25 12:00:00 14.9 4 Sudoeste 21 Sudoeste -- -- -- 66
2020-11-25 11:00:00 13.4 2 Sudoeste 13 Sudoeste -- -- -- 76
2020-11-25 10:00:00 11.5 7 Sudoeste 16 Sudoeste -- -- -- 80
2020-11-25 09:00:00 9.3 0 Calma 12 Sudoeste -- -- -- 90
2020-11-25 08:00:00 8.3 4 Sudoeste 10 Sudoeste -- -- -- 93
2020-11-25 07:00:00 7.8 0 Calma 13 Sudoeste -- -- -- 91
2020-11-25 06:00:00 9 5 Sudoeste 13 Sudoeste -- -- -- 92
2020-11-25 05:00:00 7.7 4 Sudoeste 12 Sudoeste -- -- -- 92
2020-11-25 04:00:00 10 6 Sudoeste 16 Sudoeste -- -- -- 91
2020-11-25 03:00:00 8.4 0 Calma 12 Sudoeste -- -- -- 95
2020-11-25 02:00:00 9.3 3 Sudoeste 14 Sudoeste -- -- -- 91
2020-11-25 01:00:00 9.3 4 Sudoeste 10 Sudoeste -- -- -- 99
2020-11-25 00:00:00 8.4 4 Sudoeste 9 Sudoeste -- -- -- 97
2020-11-24 23:00:00 11.1 4 Sudoeste 12 Sudoeste -- -- -- 98
2020-11-24 22:00:00 10.5 5 Sudoeste 13 Sudoeste -- -- -- 98
2020-11-24 21:00:00 11.2 7 Sudoeste 12 Sudoeste -- -- -- 98
2020-11-24 20:00:00 10.7 0 Calma 3 Noroeste -- -- -- 94
2020-11-24 19:00:00 12 0 Calma 6 Este -- -- -- 92
2020-11-24 18:00:00 13.2 3 Sudeste 14 Este -- -- -- 90
2020-11-24 17:00:00 15 8 Este 18 Este -- -- -- 78
2020-11-24 16:00:00 15.5 8 Este 17 Este -- -- -- 72
2020-11-24 15:00:00 16.1 7 Este 14 Este -- -- -- 67
2020-11-24 14:00:00 16.1 5 Este 14 Este -- -- -- 65
2020-11-24 13:00:00 15.8 2 Sudeste 14 Sudoeste -- -- -- 63
2020-11-24 12:00:00 14.1 5 Sudoeste 13 Sudoeste -- -- -- 71
2020-11-24 11:00:00 12.3 6 Sudoeste 15 Sudoeste -- -- -- 77
2020-11-24 10:00:00 10.9 4 Sudoeste 15 Sudoeste -- -- -- 87
2020-11-24 09:00:00 9.1 6 Sudoeste 13 Sudoeste -- -- -- 93
2020-11-24 08:00:00 7.5 5 Sudoeste 14 Sudoeste -- -- -- 96
2020-11-24 07:00:00 8.3 4 Sudoeste 13 Sudoeste -- -- -- 95
2020-11-24 06:00:00 7.8 2 Sudoeste 10 Sudoeste -- -- -- 96
2020-11-24 05:00:00 7.7 4 Sudoeste 12 Sudoeste -- -- -- 96
2020-11-24 04:00:00 8 2 Oeste 10 Sudoeste -- -- -- 96
2020-11-24 03:00:00 8 0 Calma 10 Sudoeste -- -- -- 95
2020-11-24 02:00:00 9 3 Sudoeste 10 Sur -- -- -- 96
2020-11-24 01:00:00 9.7 4 Sudoeste 12 Sudoeste -- -- -- 95
2020-11-24 00:00:00 10.1 3 Sudoeste 12 Sudoeste -- -- -- 95
2020-11-23 23:00:00 10.2 3 Sudoeste 11 Sudoeste -- -- -- 97
2020-11-23 22:00:00 10.6 3 Sudoeste 10 Sudoeste -- -- -- 99
2020-11-23 21:00:00 8.4 0 Calma 3 Sur -- -- -- 96
2020-11-23 20:00:00 9.8 0 Calma -- -- -- -- -- 93
2020-11-23 19:00:00 10.8 0 Calma 4 Nordeste -- -- -- 91
2020-11-23 18:00:00 12.4 2 Este 17 Este -- -- -- 85
2020-11-23 17:00:00 14.5 9 Este 21 Sudeste -- -- -- 74
2020-11-23 16:00:00 15.4 8 Este 17 Este -- -- -- 68
2020-11-23 15:00:00 15.9 4 Sudeste 12 Este -- -- -- 66
2020-11-23 14:00:00 15.3 3 Nordeste 9 Este -- -- -- 69
2020-11-23 13:00:00 14.4 0 Calma 8 Sudoeste -- -- -- 72
2020-11-23 12:00:00 13.7 3 Sudoeste 14 Sudoeste -- -- -- 74
2020-11-23 11:00:00 12.5 6 Sudoeste 15 Sudoeste -- -- -- 76
2020-11-23 10:00:00 11.4 6 Sudoeste 16 Sudoeste -- -- -- 83
2020-11-23 09:00:00 8.9 4 Sudoeste 16 Sudoeste -- -- -- 92
2020-11-23 08:00:00 7.8 5 Sudoeste 14 Sudoeste -- -- -- 95
2020-11-23 07:00:00 7.4 0 Calma 15 Sur -- -- -- 94
2020-11-23 06:00:00 7.7 4 Sudoeste 13 Sudoeste -- -- -- 94
2020-11-23 05:00:00 8.3 5 Sudoeste 14 Sudoeste -- -- -- 92
2020-11-23 04:00:00 8.6 5 Sudoeste 11 Sudoeste -- -- -- 92
2020-11-23 03:00:00 8.8 3 Sudoeste 11 Sudoeste -- -- -- 91
2020-11-23 02:00:00 9.2 4 Sudoeste 10 Sudoeste -- -- -- 91
2020-11-23 01:00:00 8.9 0 Calma 7 Sudoeste -- -- -- 95
2020-11-23 00:00:00 8.9 0 Calma 10 Sudoeste -- -- -- 99
2020-11-22 23:00:00 9.3 3 Sudoeste 9 Sudoeste -- -- -- 99
2020-11-22 22:00:00 8.1 0 Calma 6 Sudoeste -- -- -- 98
2020-11-22 21:00:00 9.3 0 Calma -- -- -- -- -- 97
2020-11-22 20:00:00 9.9 0 Calma 6 Este -- -- -- 95
2020-11-22 19:00:00 11.2 0 Calma 12 Este -- -- -- 94
2020-11-22 18:00:00 12.2 6 Este 19 Sudeste -- -- -- 86
2020-11-22 17:00:00 14.5 11 Este 22 Este -- -- -- 71
2020-11-22 16:00:00 15.5 8 Este 17 Este -- -- -- 66
2020-11-22 15:00:00 16.3 5 Sudeste 14 Este -- -- -- 60
2020-11-22 14:00:00 16.1 0 Calma 16 Sudoeste -- -- -- 55
2020-11-22 13:00:00 15.2 5 Sudoeste 18 Sudoeste -- -- -- 63
2020-11-22 12:00:00 14.1 7 Sudoeste 23 Sudoeste -- -- -- 67
2020-11-22 11:00:00 12.7 13 Sudoeste 25 Sudoeste -- -- -- 72
2020-11-22 10:00:00 10.8 14 Sudoeste 29 Sudoeste -- -- -- 81
2020-11-22 09:00:00 9.4 13 Sudoeste 23 Sudoeste -- -- -- 89
2020-11-22 08:00:00 8 8 Sudoeste 18 Sudoeste -- -- -- 95
2020-11-22 07:00:00 7.6 4 Sudoeste 13 Sudoeste -- -- -- 96
2020-11-22 06:00:00 7.1 2 Sudoeste 10 Sudoeste -- -- -- 95
2020-11-22 05:00:00 7.6 0 Calma 11 Sur -- -- -- 95
2020-11-22 04:00:00 9.3 4 Sudoeste 13 Sudoeste -- -- -- 91
2020-11-22 03:00:00 9.3 4 Sudoeste 16 Sudoeste -- -- -- 91
2020-11-22 02:00:00 9.5 5 Sudoeste 15 Sudoeste -- -- -- 93
2020-11-22 01:00:00 9.5 7 Sudoeste 15 Sur -- -- -- 93
2020-11-22 00:00:00 9.5 4 Sudoeste 11 Sur -- -- -- 94
2020-11-21 23:00:00 8.1 0 Calma 8 Sudoeste -- -- -- 98
2020-11-21 22:00:00 8.9 5 Sudoeste 10 Sudoeste -- -- -- 98
2020-11-21 21:00:00 8.4 0 Calma 7 Sur -- -- -- 95
2020-11-21 20:00:00 9.6 0 Calma 2 Sudeste -- -- -- 90
2020-11-21 19:00:00 11 0 Calma 6 Este -- -- -- 83
2020-11-21 18:00:00 12.9 4 Este 9 Nordeste -- -- -- 72
2020-11-21 17:00:00 15.3 6 Nordeste 14 Nordeste -- -- -- 61
2020-11-21 16:00:00 16.1 10 Nordeste 18 Este -- -- -- 59
2020-11-21 15:00:00 16.3 9 Nordeste 18 Nordeste -- -- -- 57
2020-11-21 14:00:00 16.2 9 Nordeste 15 Nordeste -- -- -- 58
2020-11-21 13:00:00 15.6 3 Norte 7 Norte -- -- -- 61
2020-11-21 12:00:00 14.5 0 Calma 14 Sudoeste -- -- -- 66
2020-11-21 11:00:00 13.2 6 Sudoeste 17 Sudoeste -- -- -- 75
2020-11-21 10:00:00 11.8 5 Sudoeste 13 Sudoeste -- -- -- 83
2020-11-21 09:00:00 10.1 4 Sudoeste 12 Sudoeste -- -- -- 91
2020-11-21 08:00:00 8.2 4 Sudoeste 12 Sudoeste -- -- -- 94
2020-11-21 07:00:00 8.7 2 Oeste 8 Sudoeste -- -- -- 93
2020-11-21 06:00:00 8.7 3 Sudoeste 9 Sudoeste -- -- -- 95
2020-11-21 05:00:00 8.9 0 Calma 9 Sur -- -- -- 92
2020-11-21 04:00:00 9.4 2 Sudoeste 11 Sudoeste -- -- -- 92
2020-11-21 03:00:00 9.3 4 Sudoeste 13 Sudoeste -- -- -- 92
2020-11-21 02:00:00 8.9 4 Sudoeste 10 Sudoeste -- -- -- 97
2020-11-21 01:00:00 8.3 0 Calma 6 Sudoeste -- -- -- 92
2020-11-21 00:00:00 10.7 4 Sudoeste 12 Sur -- -- -- 84
2020-11-20 23:00:00 11.2 5 Sudoeste 14 Sudoeste -- -- -- 88
2020-11-20 22:00:00 8.6 3 Sudoeste 8 Sudoeste -- -- -- 95
2020-11-20 21:00:00 9.4 0 Calma 0 Calma -- -- -- 91
2020-11-20 20:00:00 10.6 2 Este 7 Sudeste -- -- -- 87
2020-11-20 19:00:00 11.4 5 Este 10 Sudeste -- -- -- 80
2020-11-20 18:00:00 13.5 5 Sudeste 12 Sudeste -- -- -- 66
2020-11-20 17:00:00 16.2 6 Este 14 Sudeste -- -- -- 58
2020-11-20 16:00:00 16.7 8 Este 21 Este -- -- -- 53
2020-11-20 15:00:00 17.2 7 Sudeste 14 Sudeste -- -- -- 51
2020-11-20 14:00:00 17 3 Sudeste 18 Sudeste -- -- -- 51
2020-11-20 13:00:00 16.9 4 Sudeste 16 Este -- -- -- 54
2020-11-20 12:00:00 16.3 5 Nordeste 14 Sudeste -- -- -- 66
2020-11-20 11:00:00 13.8 0 Calma 6 Oeste -- -- -- 87
2020-11-20 10:00:00 11.9 0 Calma 5 Sudoeste -- -- -- 99
2020-11-20 09:00:00 10.7 0 Calma 7 Sudoeste -- -- -- 99
2020-11-20 08:00:00 9.8 0 Calma 8 Sudoeste -- -- -- 99
2020-11-20 07:00:00 10.3 4 Sudoeste 10 Sudoeste -- -- -- 99
2020-11-20 06:00:00 10.5 3 Sudoeste 10 Sudoeste -- -- -- 97
2020-11-20 05:00:00 10.2 0 Calma 6 Sur -- -- -- 96
2020-11-20 04:00:00 11 0 Calma 7 Sudoeste -- -- -- 91
2020-11-20 03:00:00 13 4 Sudoeste 10 Sudoeste -- -- -- 86
2020-11-20 02:00:00 14.1 4 Sudoeste 13 Sudoeste -- -- -- 83
2020-11-20 01:00:00 14.6 3 Sudoeste 16 Sudoeste -- -- -- 78
2020-11-20 00:00:00 14.3 3 Sudoeste 18 Sudoeste -- -- -- 81
2020-11-19 23:00:00 12.2 0 Calma 8 Sudoeste -- -- -- 98
2020-11-19 22:00:00 12.4 0 Calma 6 Sudoeste -- -- -- 96
2020-11-19 21:00:00 13 0 Calma 3 Oeste -- -- -- 95
2020-11-19 20:00:00 14.1 0 Calma 5 Sudeste -- -- -- 92
2020-11-19 19:00:00 15.6 3 Sudeste 5 Sudeste -- -- -- 89
2020-11-19 18:00:00 17 0 Calma 10 Este -- -- -- 86
2020-11-19 17:00:00 19.9 4 Sudeste 9 Sudeste -- -- -- 71
2020-11-19 16:00:00 20.2 0 Calma 7 Sudoeste -- -- -- 58
2020-11-19 15:00:00 19.9 0 Calma 8 Sudoeste -- -- -- 59
2020-11-19 14:00:00 19.5 0 Calma 14 Sudoeste -- -- -- 67
2020-11-19 13:00:00 18.7 4 Sudoeste 12 Sudoeste -- -- -- 70
2020-11-19 12:00:00 17.8 0 Calma 13 Sudoeste -- -- -- 79
2020-11-19 11:00:00 16.7 2 Sudoeste 13 Sudoeste -- -- -- 83
2020-11-19 10:00:00 15.6 4 Sudoeste 10 Sudoeste -- -- -- 90
2020-11-19 09:00:00 14.2 2 Sudoeste 12 Sudoeste -- -- -- 95
2020-11-19 08:00:00 14 6 Sudoeste 13 Sudoeste -- -- -- 95
2020-11-19 07:00:00 14.1 3 Sudoeste 11 Sudoeste -- -- -- 96
2020-11-19 06:00:00 14 0 Calma 10 Sudoeste -- -- -- 96
2020-11-19 05:00:00 14 3 Sudoeste 11 Sudoeste -- -- -- 97
2020-11-19 04:00:00 14.1 0 Calma 9 Sudoeste -- -- -- 97
2020-11-19 03:00:00 14.2 3 Sudoeste 8 Sudoeste -- -- -- 98
2020-11-19 02:00:00 14 4 Sudoeste 10 Sudoeste -- -- -- 99
2020-11-19 01:00:00 14.1 3 Sudoeste 12 Sudoeste -- -- -- 99
2020-11-19 00:00:00 13.7 4 Sudoeste 12 Sudoeste -- -- -- 99
2020-11-18 23:00:00 13.8 8 Sudoeste 12 Sudoeste -- -- -- 99
2020-11-18 22:00:00 13.8 4 Sudoeste 8 Sudoeste -- -- -- 99
2020-11-18 21:00:00 13.1 0 Calma 4 Sudoeste -- -- -- 96
2020-11-18 20:00:00 14.5 0 Calma 9 Sudeste -- -- -- 95
2020-11-18 19:00:00 15.2 3 Sudeste 11 Sudeste -- -- -- 94
2020-11-18 18:00:00 16.1 5 Sudeste 17 Este -- -- -- 88
2020-11-18 17:00:00 17.5 9 Este 16 Este -- -- -- 78
2020-11-18 16:00:00 18.4 8 Este 16 Este -- -- -- 75
2020-11-18 15:00:00 18.9 0 Calma 8 Oeste -- -- -- 70
2020-11-18 14:00:00 18.4 2 Norte 14 Sudoeste -- -- -- 72
2020-11-18 13:00:00 18.2 3 Sudoeste 15 Sudoeste -- -- -- 74
2020-11-18 12:00:00 17.4 2 Sudoeste 17 Sudoeste -- -- -- 78
2020-11-18 11:00:00 16.5 7 Sudoeste 18 Sudoeste -- -- -- 82
2020-11-18 10:00:00 15.3 6 Sudoeste 15 Sudoeste -- -- -- 87
2020-11-18 09:00:00 14.7 4 Sudoeste 16 Sudoeste -- -- -- 94
2020-11-18 08:00:00 14 3 Sudoeste 11 Sudoeste -- -- -- 95
2020-11-18 07:00:00 14.6 0 Calma 10 Sudoeste -- -- -- 95
2020-11-18 06:00:00 14.9 5 Sudoeste 9 Sudoeste -- -- -- 95
2020-11-18 05:00:00 15.5 0 Calma 3 Norte -- -- -- 95
2020-11-18 04:00:00 15.7 3 Este 5 Este -- -- -- 95
2020-11-18 03:00:00 16 0 Calma -- -- -- -- -- 95
2020-11-18 02:00:00 16 0 Calma 5 Sudoeste -- -- -- 94
2020-11-18 01:00:00 16.3 0 Calma 6 Sudoeste -- -- -- 94
2020-11-18 00:00:00 16.3 0 Calma 7 Sudoeste -- -- -- 94
2020-11-17 23:00:00 16.3 2 Sudoeste 6 Sudoeste -- -- -- 94
2020-11-17 22:00:00 16.3 0 Calma 6 Norte -- -- -- 94
2020-11-17 21:00:00 17.2 0 Calma 9 Noroeste -- -- -- 94
2020-11-17 20:00:00 17.4 2 Norte 9 Nordeste -- -- -- 95
2020-11-17 19:00:00 17.3 3 Norte 13 Este -- -- -- 95
2020-11-17 18:00:00 16.9 8 Este 21 Sudeste -- -- -- 95
2020-11-17 17:00:00 17.8 12 Este 23 Este -- -- -- 88
2020-11-17 16:00:00 18.6 13 Este 25 Este -- -- -- 82
2020-11-17 15:00:00 19.3 12 Este 23 Este -- -- -- 78
2020-11-17 14:00:00 19.6 8 Este 19 Sudeste -- -- -- 74
2020-11-17 13:00:00 19.6 2 Sudeste 9 Sudoeste -- -- -- 69
2020-11-17 12:00:00 18.9 4 Sudoeste 15 Sudoeste -- -- -- 71
2020-11-17 11:00:00 17.5 5 Sudoeste 19 Sudoeste -- -- -- 75
2020-11-17 10:00:00 16 10 Sudoeste 21 Sudoeste -- -- -- 81
2020-11-17 09:00:00 15 8 Sudoeste 18 Sudoeste -- -- -- 88
2020-11-17 08:00:00 13.6 7 Sudoeste 16 Sudoeste -- -- -- 95
2020-11-17 07:00:00 13.1 5 Sudoeste 13 Sudoeste -- -- -- 96
2020-11-17 06:00:00 13.2 4 Sudoeste 13 Sur -- -- -- 94
2020-11-17 05:00:00 13.6 6 Sudoeste 12 Sudoeste -- -- -- 94
2020-11-17 04:00:00 14.7 6 Sudoeste 12 Sudoeste -- -- -- 92
2020-11-17 03:00:00 14.9 3 Sudoeste 10 Sudoeste -- -- -- 95
2020-11-17 02:00:00 14.8 5 Sudoeste 12 Sudoeste -- -- -- 96
2020-11-17 01:00:00 15.3 5 Sudoeste 11 Sudoeste -- -- -- 96
2020-11-17 00:00:00 14.5 0 Calma 6 Sudoeste -- -- -- 96
2020-11-16 23:00:00 14.6 0 Calma 5 Sudoeste -- -- -- 95
2020-11-16 22:00:00 15.5 0 Calma 6 Sudoeste -- -- -- 93
2020-11-16 21:00:00 16 0 Calma 3 Sudoeste -- -- -- 94
2020-11-16 20:00:00 16.7 0 Calma 6 Noroeste -- -- -- 90
2020-11-16 19:00:00 17.1 4 Norte 7 Nordeste -- -- -- 86
2020-11-16 18:00:00 17.9 5 Este 15 Este -- -- -- 79
2020-11-16 17:00:00 18.7 9 Este 20 Este -- -- -- 72
2020-11-16 16:00:00 19.2 12 Este 28 Este -- -- -- 69
2020-11-16 15:00:00 20.8 10 Este 23 Este -- -- -- 67
2020-11-16 14:00:00 21.6 12 Este 22 Sudeste -- -- -- 63
2020-11-16 13:00:00 22.6 10 Este 19 Este -- -- -- 58
2020-11-16 12:00:00 22.2 4 Nordeste 13 Sudoeste -- -- -- 63
2020-11-16 11:00:00 21.2 0 Calma 12 Sudoeste -- -- -- 67
2020-11-16 10:00:00 20.2 7 Sudoeste 23 Sudoeste -- -- -- 70
2020-11-16 09:00:00 19.4 10 Sudoeste 23 Sudoeste -- -- -- 70
2020-11-16 08:00:00 18.4 13 Sudoeste 27 Sudoeste -- -- -- 70
2020-11-16 07:00:00 18.4 11 Sudoeste 22 Sudoeste -- -- -- 70
2020-11-16 06:00:00 18.6 7 Sudoeste 22 Sudoeste -- -- -- 68
2020-11-16 05:00:00 17.9 12 Sudoeste 23 Sudoeste -- -- -- 75
2020-11-16 04:00:00 17.4 9 Sudoeste 18 Sudoeste -- -- -- 78
2020-11-16 03:00:00 17.3 2 Sudoeste 15 Sudoeste -- -- -- 78
2020-11-16 02:00:00 18.6 8 Sudoeste 14 Sudoeste -- -- -- 75
2020-11-16 01:00:00 17.6 3 Sudoeste 11 Sudoeste -- -- -- 79
2020-11-16 00:00:00 17.7 0 Calma 13 Sudoeste -- -- -- 75
2020-11-15 23:00:00 18.9 6 Sudoeste 21 Sudoeste -- -- -- 71
2020-11-15 22:00:00 18.4 6 Sudoeste 15 Sudoeste -- -- -- 74
2020-11-15 21:00:00 18.5 6 Sudoeste 12 Sudoeste -- -- -- 74
2020-11-15 20:00:00 18 5 Sudoeste 14 Sudoeste -- -- -- 75
2020-11-15 19:00:00 18.9 5 Sudoeste 12 Sudoeste -- -- -- 67
2020-11-15 18:00:00 20.4 0 Calma 12 Noroeste -- -- -- 60
2020-11-15 17:00:00 22.5 2 Oeste 16 Sudoeste -- -- -- 54
2020-11-15 16:00:00 22.3 2 Oeste 20 Sudoeste -- -- -- 56
2020-11-15 15:00:00 22.3 3 Oeste 21 Sudoeste -- -- -- 56
2020-11-15 14:00:00 21.8 4 Oeste 21 Sudoeste -- -- -- 57
2020-11-15 13:00:00 21.3 10 Sudoeste 24 Sudoeste -- -- -- 57
2020-11-15 12:00:00 20.3 8 Sudoeste 32 Sudoeste -- -- -- 59
2020-11-15 11:00:00 19.8 10 Sudoeste 29 Sudoeste -- -- -- 59
2020-11-15 10:00:00 18.4 13 Sudoeste 26 Sudoeste -- -- -- 67
2020-11-15 09:00:00 17.2 12 Sudoeste 23 Sudoeste -- -- -- 72
2020-11-15 08:00:00 16.1 7 Sudoeste 17 Sudoeste -- -- -- 77
2020-11-15 07:00:00 16 6 Sudoeste 13 Sudoeste -- -- -- 79
2020-11-15 06:00:00 15.9 6 Sudoeste 18 Sudoeste -- -- -- 83
2020-11-15 05:00:00 16.1 5 Sudoeste 15 Sudoeste -- -- -- 83
2020-11-15 04:00:00 15.6 5 Sudoeste 18 Sudoeste -- -- -- 90
2020-11-15 03:00:00 14.9 0 Calma 12 Sudoeste -- -- -- 91
2020-11-15 02:00:00 15.9 5 Sudoeste 13 Sudoeste -- -- -- 89
2020-11-15 01:00:00 16.7 7 Sudoeste 13 Sudoeste -- -- -- 88
2020-11-15 00:00:00 16.5 4 Sudoeste 12 Sudoeste -- -- -- 92
2020-11-14 23:00:00 16 8 Sudoeste 12 Sudoeste -- -- -- 94
2020-11-14 22:00:00 15.8 6 Sudoeste 11 Sudoeste -- -- -- 96
2020-11-14 21:00:00 15.6 4 Sudoeste 8 Sudoeste -- -- -- 99
2020-11-14 20:00:00 15.5 0 Calma 5 Sudeste -- -- -- 96
2020-11-14 19:00:00 16.1 0 Calma 7 Este -- -- -- 94
2020-11-14 18:00:00 16.8 2 Sudeste 9 Sudeste -- -- -- 91
2020-11-14 17:00:00 17.2 2 Sudeste 12 Sudeste -- -- -- 89
2020-11-14 16:00:00 17.4 5 Sudeste 12 Sudeste -- -- -- 89
2020-11-14 15:00:00 17.5 0 Calma 8 Sudeste -- -- -- 84
2020-11-14 14:00:00 17.5 2 Sudoeste 9 Sudoeste -- -- -- 82
2020-11-14 13:00:00 16.9 3 Sudoeste 9 Sudoeste -- -- -- 83
2020-11-14 12:00:00 16.5 2 Sudoeste 13 Sudoeste -- -- -- 87
2020-11-14 11:00:00 16.2 4 Sudoeste 14 Sudoeste -- -- -- 89
2020-11-14 10:00:00 15.2 4 Sudoeste 11 Sudoeste -- -- -- 95
2020-11-14 09:00:00 14.3 3 Sudoeste 9 Sur -- -- -- 98
2020-11-14 08:00:00 13.4 0 Calma 8 Sudoeste -- -- -- 99
2020-11-14 07:00:00 13.9 3 Sudoeste 8 Sudoeste -- -- -- 99
2020-11-14 06:00:00 14.3 0 Calma 10 Sudoeste -- -- -- 99
2020-11-14 05:00:00 14.4 0 Calma 8 Sudoeste -- -- -- 99
2020-11-14 04:00:00 14.4 3 Sudoeste 7 Sudoeste -- -- -- 99
2020-11-14 03:00:00 14.4 0 Calma 9 Sudoeste -- -- -- 99
2020-11-14 02:00:00 14.5 5 Sudoeste 10 Sudoeste -- -- -- 99
2020-11-14 01:00:00 14.5 0 Calma 8 Sudoeste -- -- -- 99
2020-11-14 00:00:00 14.6 5 Sudoeste 9 Sudoeste -- -- -- 99
2020-11-13 23:00:00 14.5 5 Sudoeste 9 Sudoeste -- -- -- 99
2020-11-13 22:00:00 14.5 0 Calma 5 Oeste -- -- -- 99
2020-11-13 21:00:00 13.6 0 Calma 3 Oeste -- -- -- 97
2020-11-13 20:00:00 14.3 0 Calma 4 Este -- -- -- 95
2020-11-13 19:00:00 14.9 0 Calma 5 Nordeste -- -- -- 94
2020-11-13 18:00:00 16.2 5 Nordeste 9 Este -- -- -- 90
2020-11-13 17:00:00 17.8 6 Este 12 Este -- -- -- 80
2020-11-13 16:00:00 18.2 5 Nordeste 11 Nordeste -- -- -- 78
2020-11-13 15:00:00 18.1 6 Nordeste 11 Nordeste -- -- -- 75
2020-11-13 14:00:00 18.9 0 Calma 8 Nordeste -- -- -- 71
2020-11-13 13:00:00 18.3 3 Nordeste 10 Nordeste -- -- -- 70
2020-11-13 12:00:00 17.5 0 Calma 6 Sudoeste -- -- -- 71
2020-11-13 11:00:00 16.4 3 Sudoeste 7 Sudoeste -- -- -- 84
2020-11-13 10:00:00 15.5 0 Calma 10 Sudoeste -- -- -- 88
2020-11-13 09:00:00 15.1 0 Calma 13 Sudoeste -- -- -- 89
2020-11-13 08:00:00 14.5 0 Calma 6 Sudoeste -- -- -- 93
2020-11-13 07:00:00 14.5 3 Sudoeste 7 Sudoeste -- -- -- 92
2020-11-13 06:00:00 14.3 2 Sudoeste 7 Sudoeste -- -- -- 92
2020-11-13 05:00:00 14.3 3 Sudoeste 8 Sudoeste -- -- -- 92
2020-11-13 04:00:00 14.3 6 Sudoeste 11 Sudoeste -- -- -- 91
2020-11-13 03:00:00 13.8 0 Calma 12 Sudoeste -- -- -- 95
2020-11-13 02:00:00 14.1 3 Sudoeste 10 Sudoeste -- -- -- 97
2020-11-13 01:00:00 14 5 Sudoeste 8 Sudoeste -- -- -- 98
2020-11-13 00:00:00 13.8 0 Calma 9 Sudoeste -- -- -- 98
2020-11-12 23:00:00 13.6 2 Sudoeste 9 Sudoeste -- -- -- 98
2020-11-12 22:00:00 13.1 3 Sudoeste 7 Sudoeste -- -- -- 98
2020-11-12 21:00:00 13 0 Calma 4 Sudoeste -- -- -- 97
2020-11-12 20:00:00 13.6 0 Calma 6 Nordeste -- -- -- 95
2020-11-12 19:00:00 14.2 3 Nordeste 8 Este -- -- -- 94
2020-11-12 18:00:00 15.3 3 Nordeste 14 Este -- -- -- 91
2020-11-12 17:00:00 16.2 9 Este 17 Este -- -- -- 84
2020-11-12 16:00:00 17.7 9 Este 20 Este -- -- -- 70
2020-11-12 15:00:00 18.6 8 Nordeste 14 Este -- -- -- 66
2020-11-12 14:00:00 18.5 6 Este 14 Este -- -- -- 63
2020-11-12 13:00:00 18.5 5 Nordeste 9 Nordeste -- -- -- 59
2020-11-12 12:00:00 17.4 0 Calma 13 Sudoeste -- -- -- 64
2020-11-12 11:00:00 15.5 6 Sudoeste 18 Sudoeste -- -- -- 68
2020-11-12 10:00:00 15 6 Sudoeste 13 Sudoeste -- -- -- 73
2020-11-12 09:00:00 12.4 5 Sudoeste 12 Sudoeste -- -- -- 87
2020-11-12 08:00:00 11.1 4 Sudoeste 12 Sudoeste -- -- -- 88
2020-11-12 07:00:00 11.8 8 Sudoeste 17 Sudoeste -- -- -- 88
2020-11-12 06:00:00 11.8 3 Sudoeste 15 Sudoeste -- -- -- 90
2020-11-12 05:00:00 11.4 3 Sudoeste 11 Sudoeste -- -- -- 91
2020-11-12 04:00:00 11.8 5 Sudoeste 14 Sudoeste -- -- -- 91
2020-11-12 03:00:00 11.8 4 Sudoeste 14 Sudoeste -- -- -- 93
2020-11-12 02:00:00 11.8 4 Sudoeste 14 Sudoeste -- -- -- 95
2020-11-12 01:00:00 11.9 3 Sudoeste 11 Sudoeste -- -- -- 99
2020-11-12 00:00:00 12.5 3 Sudoeste 7 Sudoeste -- -- -- 99
2020-11-11 23:00:00 13.2 0 Calma 15 Sudoeste -- -- -- 98
2020-11-11 22:00:00 12.8 6 Sudoeste 12 Sudoeste -- -- -- 99
2020-11-11 21:00:00 12.5 0 Calma 6 Sudoeste -- -- -- 95
2020-11-11 20:00:00 14.4 0 Calma 13 Sudeste -- -- -- 94
2020-11-11 19:00:00 15 5 Sudeste 16 Sudeste -- -- -- 93
2020-11-11 18:00:00 15.9 8 Este 22 Sudeste -- -- -- 86
2020-11-11 17:00:00 17.3 10 Este 24 Este -- -- -- 77
2020-11-11 16:00:00 18 12 Este 23 Este -- -- -- 71
2020-11-11 15:00:00 18.3 9 Este 20 Este -- -- -- 68
2020-11-11 14:00:00 18.7 6 Este 15 Este -- -- -- 68
2020-11-11 13:00:00 18.3 4 Este 11 Este -- -- -- 70
2020-11-11 12:00:00 17.5 2 Sudoeste 14 Sudoeste -- -- -- 71
2020-11-11 11:00:00 15.7 8 Sudoeste 21 Sudoeste -- -- -- 75
2020-11-11 10:00:00 14.4 10 Sudoeste 21 Sudoeste -- -- -- 84
2020-11-11 09:00:00 13 10 Sudoeste 19 Sudoeste -- -- -- 93
2020-11-11 08:00:00 11.9 5 Sudoeste 15 Sudoeste -- -- -- 97
2020-11-11 07:00:00 12 6 Sudoeste 13 Sudoeste -- -- -- 98
2020-11-11 06:00:00 12.5 5 Sudoeste 14 Sudoeste -- -- -- 96
2020-11-11 05:00:00 12.4 5 Sudoeste 17 Sudoeste -- -- -- 98
2020-11-11 04:00:00 12.4 4 Sudoeste 10 Sudoeste -- -- -- 98
2020-11-11 03:00:00 12.7 4 Sudoeste 12 Sur -- -- -- 97
2020-11-11 02:00:00 12.8 5 Sudoeste 13 Sudoeste -- -- -- 97
2020-11-11 01:00:00 12.7 5 Sudoeste 12 Sudoeste -- -- -- 98
2020-11-11 00:00:00 13 0 Calma 8 Sudoeste -- -- -- 99
2020-11-10 23:00:00 12.6 2 Sudoeste 7 Sudoeste -- -- -- 99
2020-11-10 22:00:00 12.1 0 Calma -- -- -- -- -- 98
2020-11-10 21:00:00 13.3 0 Calma -- -- -- -- -- 97
2020-11-10 20:00:00 13.8 0 Calma 5 Este -- -- -- 96
2020-11-10 19:00:00 14.7 4 Este 9 Sudeste -- -- -- 94
2020-11-10 18:00:00 16.3 4 Este 17 Este -- -- -- 87
2020-11-10 17:00:00 18 9 Este 19 Este -- -- -- 73
2020-11-10 16:00:00 18.9 7 Este 15 Este -- -- -- 67
2020-11-10 15:00:00 19.1 6 Este 15 Este -- -- -- 65
2020-11-10 14:00:00 19.4 8 Nordeste 15 Este -- -- -- 64
2020-11-10 13:00:00 19.1 4 Nordeste 12 Nordeste -- -- -- 59
2020-11-10 12:00:00 18.6 2 Norte 11 Sudoeste -- -- -- 59
2020-11-10 11:00:00 17.2 4 Sudoeste 17 Sudoeste -- -- -- 68
2020-11-10 10:00:00 15.6 0 Calma 22 Sudoeste -- -- -- 76
2020-11-10 09:00:00 14.6 7 Sudoeste 17 Sudoeste -- -- -- 77
2020-11-10 08:00:00 13.4 5 Sudoeste 15 Sudoeste -- -- -- 84
2020-11-10 07:00:00 13.2 4 Sudoeste 12 Sudoeste -- -- -- 88
2020-11-10 06:00:00 13.2 3 Sudoeste 15 Sudoeste -- -- -- 90
2020-11-10 05:00:00 13.8 8 Sudoeste 18 Sudoeste -- -- -- 92
2020-11-10 04:00:00 13.6 4 Sudoeste 12 Sudoeste -- -- -- 96
2020-11-10 03:00:00 13.6 7 Sudoeste 11 Sudoeste -- -- -- 97
2020-11-10 02:00:00 13.9 0 Calma 12 Sudoeste -- -- -- 95
2020-11-10 01:00:00 14.4 4 Sudoeste 12 Sudoeste -- -- -- 97
2020-11-10 00:00:00 14.4 6 Sudoeste 9 Sudoeste -- -- -- 98
2020-11-09 23:00:00 14.6 5 Sudoeste 9 Sudoeste -- -- -- 98
2020-11-09 22:00:00 13.9 0 Calma 0 Calma -- -- -- 97
2020-11-09 21:00:00 13.8 0 Calma 8 Noroeste -- -- -- 95
2020-11-09 20:00:00 14.2 5 Sudoeste 9 Sudoeste -- -- -- 93
2020-11-09 19:00:00 15.4 0 Calma 8 Sudeste -- -- -- 88
2020-11-09 18:00:00 17 2 Sudeste 13 Este -- -- -- 83
2020-11-09 17:00:00 19.2 6 Este 15 Este -- -- -- 69
2020-11-09 16:00:00 19.7 6 Sudeste 18 Este -- -- -- 66
2020-11-09 15:00:00 19.7 6 Sudeste 15 Este -- -- -- 64
2020-11-09 14:00:00 19.6 7 Este 14 Este -- -- -- 63
2020-11-09 13:00:00 20 5 Este 11 Sudoeste -- -- -- 59
2020-11-09 12:00:00 18.2 6 Sudoeste 18 Sudoeste -- -- -- 64
2020-11-09 11:00:00 16.7 10 Sudoeste 17 Sudoeste -- -- -- 69
2020-11-09 10:00:00 14.3 7 Sudoeste 15 Sudoeste -- -- -- 80
2020-11-09 09:00:00 12.5 3 Sudoeste 13 Sudoeste -- -- -- 88
2020-11-09 08:00:00 12 4 Sudoeste 13 Sudoeste -- -- -- 88
2020-11-09 07:00:00 12.8 5 Sudoeste 17 Sudoeste -- -- -- 86
2020-11-09 06:00:00 11.3 0 Calma 9 Sudoeste -- -- -- 93
2020-11-09 05:00:00 12.8 5 Sudoeste 13 Sur -- -- -- 87
2020-11-09 04:00:00 12.6 3 Sudoeste 13 Sudoeste -- -- -- 91
2020-11-09 03:00:00 12.4 6 Sudoeste 14 Sudoeste -- -- -- 91
2020-11-09 02:00:00 12.3 4 Sudoeste 11 Sur -- -- -- 94
2020-11-09 01:00:00 12.8 5 Sudoeste 11 Sudoeste -- -- -- 94
2020-11-09 00:00:00 11.8 0 Calma 6 Sudoeste -- -- -- 97
2020-11-08 23:00:00 12.9 3 Sudoeste 7 Sudoeste -- -- -- 97
2020-11-08 22:00:00 12.9 0 Calma 9 Sudoeste -- -- -- 95
2020-11-08 21:00:00 14.3 4 Sudoeste 12 Sudoeste -- -- -- 93
2020-11-08 20:00:00 14.5 0 Calma 9 Este -- -- -- 89
2020-11-08 19:00:00 14.8 0 Calma 9 Este -- -- -- 88
2020-11-08 18:00:00 15.9 6 Este 17 Este -- -- -- 83
2020-11-08 17:00:00 17.8 9 Este 19 Este -- -- -- 74
2020-11-08 16:00:00 19.2 10 Este 19 Este -- -- -- 61
2020-11-08 15:00:00 20 8 Este 15 Este -- -- -- 61
2020-11-08 14:00:00 20.4 5 Este 12 Este -- -- -- 50
2020-11-08 13:00:00 20 0 Calma 11 Sudoeste -- -- -- 51
2020-11-08 12:00:00 19 6 Sudoeste 17 Sudoeste -- -- -- 51
2020-11-08 11:00:00 17 9 Sudoeste 20 Sudoeste -- -- -- 62
2020-11-08 10:00:00 14.9 10 Sudoeste 22 Sudoeste -- -- -- 66
2020-11-08 09:00:00 14.5 10 Sudoeste 23 Sudoeste -- -- -- 66
2020-11-08 08:00:00 13.1 10 Sudoeste 25 Sudoeste -- -- -- 71
2020-11-08 07:00:00 13 9 Sudoeste 19 Sudoeste -- -- -- 75
2020-11-08 06:00:00 12.8 9 Sudoeste 18 Sudoeste -- -- -- 77
2020-11-08 05:00:00 12.6 5 Sudoeste 19 Sudoeste -- -- -- 81
2020-11-08 04:00:00 13 6 Sudoeste 16 Sudoeste -- -- -- 80
2020-11-08 03:00:00 12.1 4 Sudoeste 12 Sudoeste -- -- -- 90
2020-11-08 02:00:00 11.2 0 Calma 3 Norte -- -- -- 96
2020-11-08 01:00:00 11.8 0 Calma 4 Nordeste -- -- -- 94
2020-11-08 00:00:00 12.7 0 Calma 13 Sudoeste -- -- -- 87
2020-11-07 23:00:00 14.7 8 Sudoeste 15 Sudoeste -- -- -- 77
2020-11-07 22:00:00 14.3 8 Sudoeste 14 Sudoeste -- -- -- 84
2020-11-07 21:00:00 13.3 0 Calma 7 Sudoeste -- -- -- 97
2020-11-07 20:00:00 14.1 0 Calma 8 Este -- -- -- 97
2020-11-07 19:00:00 14.8 0 Calma 6 Noroeste -- -- -- 94
2020-11-07 18:00:00 16.1 0 Calma 5 Sudeste -- -- -- 90
2020-11-07 17:00:00 17.6 0 Calma 5 Sudoeste -- -- -- 81
2020-11-07 16:00:00 16.8 0 Calma 6 Sudeste -- -- -- 92
2020-11-07 15:00:00 16.6 0 Calma 7 Sudoeste -- -- -- 90
2020-11-07 14:00:00 16.3 0 Calma 15 Este -- -- -- 87
2020-11-07 13:00:00 18.7 9 Este 19 Este -- -- -- 71
2020-11-07 12:00:00 17.1 6 Este 13 Este -- -- -- 85
2020-11-07 11:00:00 16.4 4 Este 13 Este -- -- -- 92
2020-11-07 10:00:00 15.5 0 Calma 5 Sudoeste -- -- -- 99
2020-11-07 09:00:00 14.8 0 Calma 9 Norte -- -- -- 99
2020-11-07 08:00:00 14.5 0 Calma 13 Sudoeste -- -- -- 99
2020-11-07 07:00:00 14.2 7 Sudoeste 53 Sudoeste -- -- -- 98
2020-11-07 06:00:00 18.4 0 Calma 14 Nordeste -- -- -- 99
2020-11-07 05:00:00 18.5 3 Este 17 Nordeste -- -- -- 98
2020-11-07 04:00:00 18.3 6 Nordeste 23 Norte -- -- -- 98
2020-11-07 03:00:00 18.2 11 Norte 27 Nordeste -- -- -- 98
2020-11-07 02:00:00 18.4 9 Norte 26 Norte -- -- -- 98
2020-11-07 01:00:00 18.5 9 Norte 24 Nordeste -- -- -- 98
2020-11-07 00:00:00 18.5 11 Norte 31 Norte -- -- -- 97
2020-11-06 23:00:00 18.4 14 Nordeste 26 Nordeste -- -- -- 97
2020-11-06 22:00:00 18.7 9 Nordeste 22 Nordeste -- -- -- 97
2020-11-06 21:00:00 18.5 10 Nordeste 23 Nordeste -- -- -- 97
2020-11-06 20:00:00 18.5 11 Nordeste 30 Nordeste -- -- -- 97
2020-11-06 19:00:00 18.6 11 Nordeste 24 Nordeste -- -- -- 96
2020-11-06 18:00:00 18.7 11 Nordeste 24 Nordeste -- -- -- 96
2020-11-06 17:00:00 18.9 6 Norte 19 Nordeste -- -- -- 95
2020-11-06 16:00:00 19 8 Norte 21 Nordeste -- -- -- 95
2020-11-06 15:00:00 19.3 12 Nordeste 25 Norte -- -- -- 93
2020-11-06 14:00:00 19.8 12 Nordeste 22 Este -- -- -- 91
2020-11-06 13:00:00 19.5 13 Nordeste 26 Este -- -- -- 91
2020-11-06 12:00:00 -- 17 Nordeste -- -- -- -- -- --
2020-11-06 11:00:00 -- -- -- -- -- -- -- -- --
2020-11-06 10:00:00 19 11 Nordeste 22 Este 0 -- -- 94
2020-11-06 09:00:00 18.5 10 Nordeste 20 Nordeste 0 -- -- 97
2020-11-06 08:00:00 18.1 12 Nordeste 21 Nordeste 0 -- -- 97
2020-11-06 07:00:00 17.6 8 Norte 21 Norte 0 -- -- 97
2020-11-06 06:00:00 17.3 6 Nordeste 15 Norte 0 -- -- 97
2020-11-06 05:00:00 17.3 0 Calma 26 Nordeste 2.5 -- -- 95
2020-11-06 04:00:00 17.6 9 Nordeste 24 Este 0 -- -- 93
2020-11-06 03:00:00 16.8 5 Norte 21 Norte 0 -- -- 98
2020-11-06 02:00:00 16.3 0 Calma 13 Nordeste 0 -- -- 99
2020-11-06 01:00:00 15.8 2 Norte 10 Noroeste 0 -- -- 99
2020-11-06 00:00:00 15.9 0 Calma 13 Norte 0 -- -- 99
2020-11-05 23:00:00 15.7 0 Calma 9 Noroeste 0 -- -- 99
2020-11-05 22:00:00 15.6 0 Calma 5 Nordeste 0 -- -- 99
2020-11-05 21:00:00 15.4 5 Sudoeste 8 Sudoeste 0 -- -- 99
2020-11-05 20:00:00 15.6 0 Calma -- -- -- -- -- 99
2020-11-05 19:00:00 15.7 0 Calma 11 Norte 4 -- -- 98
2020-11-05 18:00:00 15.9 5 Norte -- -- -- -- -- 98
2020-11-05 17:00:00 -- -- -- -- -- -- -- -- --
2020-11-05 16:00:00 -- -- -- -- -- -- -- -- --
2020-11-05 15:00:00 15.4 10 Sudoeste 40 Sudoeste -- -- -- 99
2020-11-05 14:00:00 -- 3 Este -- -- -- -- -- --
2020-11-05 13:00:00 17.1 28 Nordeste 51 Nordeste 0.2 -- -- 93
2020-11-05 12:00:00 17 19 Nordeste 49 Nordeste 0 -- -- 93
2020-11-05 11:00:00 16.9 28 Nordeste 50 Nordeste 1.1 -- -- 94
2020-11-05 10:00:00 15 16 Nordeste 45 Nordeste 1 -- -- 98
2020-11-05 09:00:00 16.4 17 Nordeste -- -- -- -- -- 91
2020-11-05 08:00:00 -- -- -- -- -- -- -- -- --
2020-11-05 07:00:00 -- -- -- -- -- -- -- -- --
2020-11-05 06:00:00 -- -- -- -- -- -- -- -- --
2020-11-05 05:00:00 -- -- -- -- -- -- -- -- --
2020-11-05 04:00:00 -- -- -- -- -- -- -- -- --
2020-11-05 03:00:00 -- -- -- -- -- -- -- -- --
2020-11-05 02:00:00 -- -- -- -- -- -- -- -- --
2020-11-05 01:00:00 -- -- -- -- -- -- -- -- --
2020-11-05 00:00:00 13.2 15 Norte 44 Nordeste 17.1 -- -- 99
2020-11-04 23:00:00 13.5 9 Norte 34 Nordeste 0.8 -- -- 99
2020-11-04 22:00:00 14.2 11 Norte 40 Norte 0.4 -- -- 99
2020-11-04 21:00:00 13.3 10 Norte 33 Nordeste 1 -- -- 99
2020-11-04 20:00:00 13.6 10 Norte 36 Nordeste 0 -- -- 98
2020-11-04 19:00:00 13.4 14 Norte 40 Nordeste 0.1 -- -- 98
2020-11-04 18:00:00 13.7 9 Norte 30 Norte 0 -- -- 98
2020-11-04 17:00:00 13 6 Norte 25 Norte 0.6 -- -- 99
2020-11-04 16:00:00 13 0 Calma 8 Noroeste 1.7 -- -- 99
2020-11-04 15:00:00 13.1 0 Calma 14 Nordeste 0.3 -- -- 98
2020-11-04 14:00:00 13.1 4 Nordeste 10 Nordeste 0 -- -- 97
2020-11-04 13:00:00 13.5 3 Norte 15 Norte 0.3 -- -- 96
2020-11-04 12:00:00 13.3 5 Norte 21 Nordeste 0.1 -- -- 93
2020-11-04 11:00:00 13.8 6 Nordeste 16 Nordeste 0.2 -- -- 91
2020-11-04 10:00:00 13.8 0 Calma 10 Norte 0 -- -- 93
2020-11-04 09:00:00 14 0 Calma 14 Nordeste 0 -- -- 92
2020-11-04 08:00:00 13.7 3 Norte 14 Norte 0 -- -- 93
2020-11-04 07:00:00 14 3 Norte 18 Norte 0.1 -- -- 93
2020-11-04 06:00:00 14.8 6 Norte 20 Nordeste 0.2 -- -- 89
2020-11-04 05:00:00 14.8 0 Calma 8 Norte 0 -- -- 88
2020-11-04 04:00:00 15.2 0 Calma 11 Nordeste 0.2 -- -- 82
2020-11-04 03:00:00 16.9 0 Calma 19 Nordeste 0 -- -- 74
2020-11-04 02:00:00 17.1 7 Nordeste 15 Nordeste 0 -- -- 74
2020-11-04 01:00:00 17.1 8 Nordeste 14 Nordeste 0 -- -- 76
2020-11-04 00:00:00 17.3 9 Nordeste 20 Nordeste 0 -- -- 75
2020-11-03 23:00:00 17.4 10 Nordeste 22 Nordeste 0 -- -- 78
2020-11-03 22:00:00 17.9 12 Nordeste 21 Nordeste 0 -- -- 80
2020-11-03 21:00:00 17 6 Este 9 Este 0 -- -- 92
2020-11-03 20:00:00 16.9 2 Nordeste 6 Norte 0 -- -- 91
2020-11-03 19:00:00 17 0 Calma 6 Nordeste 0 -- -- 90
2020-11-03 18:00:00 17.6 4 Este 11 Nordeste 0 -- -- 86
2020-11-03 17:00:00 18.8 6 Nordeste 14 Nordeste 0 -- -- 81
2020-11-03 16:00:00 19.6 8 Nordeste 16 Nordeste 0 -- -- 78
2020-11-03 15:00:00 19.5 8 Nordeste 17 Nordeste 0 -- -- 77
2020-11-03 14:00:00 19.2 9 Nordeste 15 Norte 0 -- -- 74
2020-11-03 13:00:00 19.2 0 Calma 8 Oeste 0 -- -- 74
2020-11-03 12:00:00 18.6 0 Calma 9 Sudoeste 0 -- -- 78
2020-11-03 11:00:00 17.4 5 Sudoeste 15 Sudoeste 0 -- -- 82
2020-11-03 10:00:00 16.9 4 Sudoeste 13 Sudoeste 0 -- -- 86
2020-11-03 09:00:00 16.2 8 Sudoeste 17 Sudoeste 0 -- -- 88
2020-11-03 08:00:00 15.4 8 Sudoeste 14 Sudoeste 0 -- -- 88
2020-11-03 07:00:00 15.4 6 Sudoeste 12 Sudoeste 0 -- -- 90
2020-11-03 06:00:00 15.6 8 Sudoeste 13 Sudoeste 0 -- -- 89
2020-11-03 05:00:00 15.5 2 Sudoeste 7 Sur 0 -- -- 92
2020-11-03 04:00:00 15.5 0 Calma 10 Sudoeste 0 -- -- 97
2020-11-03 03:00:00 15.4 3 Sudoeste 9 Sudoeste 0 -- -- 97
2020-11-03 02:00:00 14.8 0 Calma 5 Sudoeste 0 -- -- 94
2020-11-03 01:00:00 15.9 0 Calma 9 Sudoeste 0 -- -- 94
2020-11-03 00:00:00 16.2 4 Sudoeste 12 Sudoeste 0 -- -- 93
2020-11-02 23:00:00 16.6 3 Sudoeste 10 Sudoeste 0 -- -- 93
2020-11-02 22:00:00 17.1 4 Sudoeste 9 Sudoeste 0 -- -- 97
2020-11-02 21:00:00 17.1 0 Calma 5 Sudoeste 0 -- -- 97
2020-11-02 20:00:00 17 0 Calma 7 Oeste 0 -- -- 96
2020-11-02 19:00:00 17.2 0 Calma 10 Norte 0 -- -- 92
2020-11-02 18:00:00 18.5 3 Norte 13 Nordeste 0 -- -- 78
2020-11-02 17:00:00 20.3 9 Este 23 Este 0 -- -- 68
2020-11-02 16:00:00 21 12 Este 22 Este 0 -- -- 72
2020-11-02 15:00:00 21.7 11 Este 24 Este 0 -- -- 71
2020-11-02 14:00:00 21.7 12 Este 20 Este 0 -- -- 69
2020-11-02 13:00:00 21.9 8 Este 16 Este 0 -- -- 66
2020-11-02 12:00:00 21 6 Este 13 Este 0 -- -- 67
2020-11-02 11:00:00 18.4 0 Calma 7 Nordeste 0 -- -- 75
2020-11-02 10:00:00 14.3 0 Calma 4 Norte 0 -- -- 94
2020-11-02 09:00:00 11.9 0 Calma -- -- 0 -- -- 99
2020-11-02 08:00:00 9.1 0 Calma -- -- 0 -- -- 99
2020-11-02 07:00:00 9.4 0 Calma 6 Sudoeste 0 -- -- 99
2020-11-02 06:00:00 9.7 0 Calma 3 Sudoeste 0 -- -- 99
2020-11-02 05:00:00 10.5 2 Sudoeste 5 Sudoeste 0 -- -- 99
2020-11-02 04:00:00 11.5 0 Calma 11 Sudoeste 0 -- -- 99
2020-11-02 03:00:00 11.8 2 Oeste 7 Sur 0 -- -- 99
2020-11-02 02:00:00 13.8 3 Sudoeste 7 Sudoeste 0 -- -- 99
2020-11-02 01:00:00 12 0 Calma 7 Sudoeste 0 -- -- 99
2020-11-02 00:00:00 12.5 0 Calma 6 Sudoeste 0 -- -- 97
2020-11-01 23:00:00 14.1 5 Sudoeste 9 Sudoeste 0 -- -- 97
2020-11-01 22:00:00 15.4 3 Sudoeste 9 Sudoeste 0 -- -- 97
2020-11-01 21:00:00 15.7 0 Calma 7 Sudoeste 0 -- -- 94
2020-11-01 20:00:00 16.6 0 Calma 10 Norte 0 -- -- 94
2020-11-01 19:00:00 17.4 4 Norte 9 Norte 0 -- -- 85
2020-11-01 18:00:00 18.8 3 Este 21 Este 0 -- -- 77
2020-11-01 17:00:00 20.7 12 Este 26 Este 0 -- -- 64
2020-11-01 16:00:00 21.2 14 Este 27 Este 0 -- -- 66
2020-11-01 15:00:00 22.4 13 Este 25 Este 0 -- -- 55
2020-11-01 14:00:00 22.9 10 Este 21 Sudeste 0 -- -- 51
2020-11-01 13:00:00 23.1 6 Este 14 Este 0 -- -- 49
2020-11-01 12:00:00 21.9 3 Este 10 Este 0 -- -- 54
2020-11-01 11:00:00 18.9 0 Calma 10 Sudoeste 0 -- -- 61
2020-11-01 10:00:00 15.2 0 Calma 8 Sudoeste 0 -- -- 89
2020-11-01 09:00:00 12.5 0 Calma -- -- 0 -- -- 99
2020-11-01 08:00:00 10.3 0 Calma 3 Oeste 0 -- -- 99
2020-11-01 07:00:00 10.3 0 Calma 4 Oeste 0 -- -- 99
2020-11-01 06:00:00 11.4 0 Calma 4 Sudoeste 0 -- -- 99
2020-11-01 05:00:00 12.1 0 Calma 7 Noroeste 0 -- -- 99
2020-11-01 04:00:00 12.7 0 Calma 14 Sudoeste 0 -- -- 98
2020-11-01 03:00:00 14 5 Sudoeste 15 Sudoeste 0 -- -- 97
2020-11-01 02:00:00 14.6 4 Sudoeste 14 Sudoeste 0 -- -- 99
2020-11-01 01:00:00 14.1 4 Sudoeste 10 Sudoeste 0 -- -- 99
2020-11-01 00:00:00 15 0 Calma 8 Sudoeste 0 -- -- 99
2020-10-31 23:00:00 15.7 0 Calma 9 Sudoeste 0 -- -- 99
2020-10-31 22:00:00 15.5 5 Sudoeste 10 Sudoeste 0 -- -- 98
2020-10-31 21:00:00 16.2 0 Calma 8 Sudoeste 0 -- -- 97
2020-10-31 20:00:00 16.4 0 Calma 6 Noroeste 0 -- -- 93
2020-10-31 19:00:00 17.6 2 Norte 7 Norte 0 -- -- 90
2020-10-31 18:00:00 18.6 4 Norte 15 Este 0 -- -- 77
2020-10-31 17:00:00 20.6 10 Este 19 Este 0 -- -- 64
2020-10-31 16:00:00 21.1 11 Este 23 Este 0 -- -- 65
2020-10-31 15:00:00 21.3 13 Este 24 Este 0 -- -- 70
2020-10-31 14:00:00 21.5 12 Este 24 Este 0 -- -- 66
2020-10-31 13:00:00 21.4 10 Este 18 Este 0 -- -- 67
2020-10-31 12:00:00 21 4 Este 13 Este 0 -- -- 66
2020-10-31 11:00:00 18.8 2 Este 8 Nordeste 0 -- -- 77
2020-10-31 10:00:00 16.7 0 Calma 6 Este 0 -- -- 90
2020-10-31 09:00:00 14.4 2 Este 5 Sudoeste 0 -- -- 93
2020-10-31 08:00:00 13.7 5 Sudoeste 13 Sudoeste 0 -- -- 88
2020-10-31 07:00:00 13.3 5 Sudoeste 15 Sudoeste 0 -- -- 94
2020-10-31 06:00:00 13.3 4 Sudoeste 9 Sudoeste 0 -- -- 99
2020-10-31 05:00:00 13.6 3 Sudoeste 9 Sur 0 -- -- 97
2020-10-31 04:00:00 13.9 3 Sudoeste 8 Sudoeste 0 -- -- 98
2020-10-31 03:00:00 14.3 0 Calma 2 Sudoeste 0 -- -- 97
2020-10-31 02:00:00 15.8 0 Calma 5 Sudoeste 0 -- -- 97
2020-10-31 01:00:00 16.6 0 Calma 7 Sudoeste 0 -- -- 97
2020-10-31 00:00:00 16.6 4 Sudoeste 10 Sudoeste 0 -- -- 97
2020-10-30 23:00:00 16.7 3 Sudoeste 10 Sudoeste 0 -- -- 99
2020-10-30 22:00:00 16.3 5 Sudoeste 9 Sudoeste 0 -- -- 99
2020-10-30 21:00:00 16 0 Calma 5 Sudoeste 0 -- -- 98
2020-10-30 20:00:00 16.6 0 Calma 8 Noroeste 0 -- -- 96
2020-10-30 19:00:00 16.9 2 Noroeste 9 Norte 0 -- -- 89
2020-10-30 18:00:00 18.2 5 Nordeste 28 Este 0 -- -- 86
2020-10-30 17:00:00 20 14 Este 30 Este 0 -- -- 78
2020-10-30 16:00:00 20.6 13 Este 31 Este 0 -- -- 76
2020-10-30 15:00:00 21.2 15 Este 26 Sudeste 0 -- -- 73
2020-10-30 14:00:00 21.9 13 Este 22 Este 0 -- -- 68
2020-10-30 13:00:00 22.1 7 Este 15 Este 0 -- -- 60
2020-10-30 12:00:00 21.6 6 Este 13 Nordeste 0 -- -- 63
2020-10-30 11:00:00 19.6 4 Este 15 Sudoeste 0 -- -- 66
2020-10-30 10:00:00 17.7 6 Sudoeste 17 Sudoeste 0 -- -- 71
2020-10-30 09:00:00 14.8 0 Calma 8 Sudoeste 0 -- -- 91
2020-10-30 08:00:00 11.9 4 Sudoeste 12 Oeste 0 -- -- 94
2020-10-30 07:00:00 13.2 5 Sudoeste 12 Sudoeste 0 -- -- 93
2020-10-30 06:00:00 11.7 2 Sudoeste 9 Sudoeste 0 -- -- 96
2020-10-30 05:00:00 12.6 3 Sudoeste 11 Oeste 0 -- -- 96
2020-10-30 04:00:00 12.5 3 Sudoeste 10 Sur 0 -- -- 97
2020-10-30 03:00:00 11.2 0 Calma 5 Sudoeste 0 -- -- 98
2020-10-30 02:00:00 12.1 0 Calma 3 Sudoeste 0 -- -- 96
2020-10-30 01:00:00 13.7 0 Calma 5 Oeste 0 -- -- 93
2020-10-30 00:00:00 15.6 0 Calma 9 Sudoeste 0 -- -- 92
2020-10-29 23:00:00 15.4 4 Sudoeste 11 Sudoeste 0 -- -- 93
2020-10-29 22:00:00 15.7 5 Sudoeste -- -- -- -- -- 97
2020-10-29 21:00:00 14.8 0 Calma 9 Sudoeste 0 -- -- 97
2020-10-29 20:00:00 15.7 0 Calma 5 Sudeste 0 -- -- 95
2020-10-29 19:00:00 16.7 2 Este 13 Este 0 -- -- 95
2020-10-29 18:00:00 18.2 9 Este 24 Este 0 -- -- 86
2020-10-29 17:00:00 19.7 14 Este 27 Este 0 -- -- 69
2020-10-29 16:00:00 20.7 13 Este 26 Este 0 -- -- 54
2020-10-29 15:00:00 21.6 9 Este 19 Este 0 -- -- 52
2020-10-29 14:00:00 22.6 7 Este 13 Este 0 -- -- 52
2020-10-29 13:00:00 21.6 0 Calma 8 Sur 0 -- -- 51
2020-10-29 12:00:00 21.1 3 Norte 8 Este 0 -- -- 54
2020-10-29 11:00:00 19.1 0 Calma 10 Sudoeste 0 -- -- 63
2020-10-29 10:00:00 -- 2 Sudoeste 13 Sur 0 -- -- --
2020-10-29 09:00:00 -- 0 Calma 8 Sur 0 -- -- --
2020-10-29 08:00:00 12.1 0 Calma 6 Sudoeste 0 -- -- 92
2020-10-29 07:00:00 12.8 0 Calma 13 Sudoeste 0 -- -- 89
2020-10-29 06:00:00 14.2 6 Sudoeste 13 Sudoeste 0 -- -- 87
2020-10-29 05:00:00 13.4 4 Sudoeste 12 Sur 0 -- -- 92
2020-10-29 04:00:00 12.3 5 Sudoeste 11 Sudoeste 0 -- -- 96
2020-10-29 03:00:00 11.9 0 Calma 9 Sudoeste 0 -- -- 97
2020-10-29 02:00:00 12.9 0 Calma 11 Sudoeste 0 -- -- 91
2020-10-29 01:00:00 14.1 2 Sudoeste 10 Sudoeste 0 -- -- 89
2020-10-29 00:00:00 14.7 8 Sudoeste 12 Sudoeste 0 -- -- 89
2020-10-28 23:00:00 14.9 5 Sudoeste 9 Sudoeste 0 -- -- 87
2020-10-28 22:00:00 15.3 3 Sudoeste 8 Sudoeste 0 -- -- 89
2020-10-28 21:00:00 15.2 3 Sudoeste 6 Sudoeste 0 -- -- 89
2020-10-28 20:00:00 16.1 0 Calma 10 Este 0 -- -- 82
2020-10-28 19:00:00 17.1 6 Este 21 Este 0 -- -- 75
2020-10-28 18:00:00 18.5 10 Este 26 Sudeste 0 -- -- 65
2020-10-28 17:00:00 20.1 13 Este 28 Este 0 -- -- 56
2020-10-28 16:00:00 21.3 12 Este 24 Este 0 -- -- 50
2020-10-28 15:00:00 22.8 8 Este 17 Este 0 -- -- 46
2020-10-28 14:00:00 22.4 0 Calma 10 Sudoeste 0 -- -- 46
2020-10-28 13:00:00 22.1 2 Oeste 15 Sudoeste 0 -- -- 47
2020-10-28 12:00:00 20.6 6 Sudoeste 20 Sudoeste 0 -- -- 48
2020-10-28 11:00:00 19 10 Sudoeste 25 Sudoeste 0 -- -- 53
2020-10-28 10:00:00 17.8 10 Sudoeste 24 Sudoeste 0 -- -- 56
2020-10-28 09:00:00 16.3 10 Sudoeste 23 Sudoeste 0 -- -- 58
2020-10-28 08:00:00 15 10 Sudoeste 20 Sudoeste 0 -- -- 59
2020-10-28 07:00:00 15.1 10 Sudoeste 22 Sudoeste 0 -- -- 59
2020-10-28 06:00:00 15 11 Sudoeste 24 Sudoeste 0 -- -- 58
2020-10-28 05:00:00 15.1 10 Sudoeste 21 Sudoeste 0 -- -- 57
2020-10-28 04:00:00 15.1 10 Sudoeste 22 Sudoeste 0 -- -- 55
2020-10-28 03:00:00 15.4 8 Sudoeste 18 Sudoeste 0 -- -- 53
2020-10-28 02:00:00 15.4 6 Sudoeste 17 Sudoeste 0 -- -- 52
2020-10-28 01:00:00 15.1 9 Sudoeste 15 Sudoeste 0 -- -- 53
2020-10-28 00:00:00 14.4 2 Sudoeste 13 Sudoeste 0 -- -- 52
2020-10-27 23:00:00 15.9 6 Sudoeste 18 Sudoeste 0 -- -- 49
2020-10-27 22:00:00 16.4 7 Sudoeste 19 Sudoeste 0 -- -- 48
2020-10-27 21:00:00 16.7 10 Sudoeste 20 Sudoeste 0 -- -- 47
2020-10-27 20:00:00 17.1 10 Sudoeste 19 Sudoeste 0 -- -- 46
2020-10-27 19:00:00 17.7 9 Sudoeste 21 Sudoeste 0 -- -- 43
2020-10-27 18:00:00 18.4 6 Sudoeste 23 Sudoeste 0 -- -- 42
2020-10-27 17:00:00 20.5 6 Sudoeste 24 Sudoeste 0 -- -- 38
2020-10-27 16:00:00 20.9 5 Sudoeste 20 Sudoeste 0 -- -- 39
2020-10-27 15:00:00 20.4 2 Sudoeste 23 Sudoeste 0 -- -- 41
2020-10-27 14:00:00 19.4 3 Oeste 22 Sudoeste 0 -- -- 42
2020-10-27 13:00:00 18.9 3 Oeste 23 Sudoeste 0 -- -- 44
2020-10-27 12:00:00 16.6 7 Sudoeste 32 Sudoeste 0 -- -- 47
2020-10-27 11:00:00 16.6 8 Sudoeste 27 Sudoeste 0 -- -- 50
2020-10-27 10:00:00 14.5 8 Sudoeste 33 Sudoeste 0 -- -- 55
2020-10-27 09:00:00 13 14 Sudoeste 31 Sudoeste 0 -- -- 57
2020-10-27 08:00:00 11.8 13 Sudoeste 26 Sudoeste 0 -- -- 60
2020-10-27 07:00:00 11.3 7 Sudoeste 25 Sudoeste 0 -- -- 60
2020-10-27 06:00:00 11.5 11 Sudoeste 24 Sudoeste 0 -- -- 58
2020-10-27 05:00:00 12.2 13 Sudoeste 26 Sudoeste 0 -- -- 56
2020-10-27 04:00:00 12.3 12 Sudoeste 24 Sudoeste 0 -- -- 55
2020-10-27 03:00:00 12.9 9 Sudoeste 25 Sudoeste 0 -- -- 53
2020-10-27 02:00:00 11.7 8 Sudoeste 14 Sudoeste 0 -- -- 55
2020-10-27 01:00:00 13.6 6 Sudoeste 16 Sudoeste 0 -- -- 52
2020-10-27 00:00:00 12.9 7 Sudoeste 17 Sudoeste 0 -- -- 53